エカテリンブルク の空港の天気 - METARとTAF

コルツォヴォ空港 ( USSS / SVX ) - ロシア エカテリンブルク
飛行場実況気象(Metar)
観測時間02/17 19:30 YEKT (02/17 14:30 UTC)
風向・風速南南西 2m/s
視程10km以上
天気現象弱い雪
全天の8割程度の雲 雲底高度 850m
気温-6℃
湿度79%
気圧994hPa
METARUSSS 171430Z 20002MPS 9999 -SN BKN028 M06/M09 Q0994 R26R/420340 NOSIG RMK QFE725/0967
過去の天気等 Google飛行場航空写真 Wunderground天気予報

過去48時間のMETAR

飛行場予報(TAF)
発表時間: 2/17 18:52 YEKT (2/17 13:52 UTC)
予報対象時間: 17日20時 YEKT ~ 18日20時 YEKT
風向・風速南 3m/s 瞬間風速 8m/s
視程3100m
天気現象弱いしゅう雪 もや
全天の8割程度の雲 雲底高度 340m
全天の4割程度の積乱雲 雲底高度 610m
18日8時 YEKT ~ 18日10時 YEKT に徐々に
風向・風速南南東 3m/s 瞬間風速 12m/s
TAF USSS 171352Z 1715/1815 19003G08MPS 3100 -SHSN BR BKN011 SCT020CB
BECMG 1803/1805 15003G12MPS